Time;durP1;ratioP1;P1;durP2;ratioP2;P2;SDS_P1;SDS_P2;PMS_P1;PMS_P2;Temp;Humidity;BMP_temperature;BMP_pressure;BME280_temperature;BME280_humidity;BME280_pressure;Samples;Min_cycle;Max_cycle;Signal;HPM_P1;HPM_P2
2024/01/09 00:01:54;;;;;;;8.75;4.97;;;;;;;;;;5049879;28;20500;-76
2024/01/09 00:04:20;;;;;;;10.38;5.25;;;;;;;;;;5051028;28;20021;-75
2024/01/09 00:06:46;;;;;;;7.40;4.45;;;;;;;;;;5051200;28;20435;-75
2024/01/09 00:09:12;;;;;;;7.15;4.43;;;;;;;;;;5051101;28;20071;-75
2024/01/09 00:11:38;;;;;;;10.00;4.80;;;;;;;;;;5051178;28;20016;-75
2024/01/09 00:14:04;;;;;;;8.13;4.95;;;;;;;;;;5050898;28;20023;-75
2024/01/09 00:16:30;;;;;;;7.13;4.38;;;;;;;;;;5049618;28;20025;-75
2024/01/09 00:18:56;;;;;;;6.65;4.07;;;;;;;;;;5050996;28;20029;-75
2024/01/09 00:21:22;;;;;;;6.85;4.18;;;;;;;;;;5050854;28;20044;-75
2024/01/09 00:23:48;;;;;;;8.23;4.60;;;;;;;;;;5049404;28;20017;-75
2024/01/09 00:26:15;;;;;;;7.50;4.55;;;;;;;;;;5049427;28;20051;-75
2024/01/09 00:28:41;;;;;;;7.25;4.25;;;;;;;;;;5049259;28;20465;-75
2024/01/09 00:31:07;;;;;;;7.30;4.07;;;;;;;;;;5050651;28;20021;-75
2024/01/09 00:33:33;;;;;;;7.43;4.28;;;;;;;;;;5049304;28;20021;-75
2024/01/09 00:35:59;;;;;;;6.32;4.28;;;;;;;;;;5050413;28;20068;-75
2024/01/09 00:38:25;;;;;;;7.55;4.40;;;;;;;;;;5050543;28;20040;-75
2024/01/09 00:40:51;;;;;;;7.93;4.03;;;;;;;;;;5049191;28;20017;-75
2024/01/09 00:43:17;;;;;;;9.75;4.60;;;;;;;;;;5050540;28;20013;-75
2024/01/09 00:45:43;;;;;;;7.82;4.72;;;;;;;;;;5049316;28;20099;-75
2024/01/09 00:48:09;;;;;;;6.55;4.20;;;;;;;;;;5050301;28;20021;-75
2024/01/09 00:50:35;;;;;;;7.97;4.05;;;;;;;;;;5049010;28;20240;-75
2024/01/09 00:53:01;;;;;;;5.78;3.78;;;;;;;;;;5050188;28;20408;-75
2024/01/09 00:55:27;;;;;;;8.63;4.70;;;;;;;;;;5048936;28;20028;-75
2024/01/09 00:57:53;;;;;;;8.48;4.85;;;;;;;;;;5048916;28;20036;-75
2024/01/09 01:00:19;;;;;;;8.55;4.35;;;;;;;;;;5048787;28;20023;-75
2024/01/09 01:02:45;;;;;;;8.52;4.45;;;;;;;;;;5050294;28;20024;-75
2024/01/09 01:05:18;;;;;;;7.47;4.85;;;;;;;;;;5050059;28;20016;-75
2024/01/09 01:07:44;;;;;;;6.15;4.60;;;;;;;;;;5048379;28;20027;-75
2024/01/09 01:10:13;;;;;;;7.28;4.53;;;;;;;;;;5049892;28;20408;-75
2024/01/09 01:12:40;;;;;;;6.47;4.38;;;;;;;;;;5048563;28;20021;-75
2024/01/09 01:15:06;;;;;;;9.10;4.53;;;;;;;;;;5049677;28;20017;-75
2024/01/09 01:17:32;;;;;;;5.82;4.07;;;;;;;;;;5049646;28;20471;-75
2024/01/09 01:19:58;;;;;;;6.43;4.05;;;;;;;;;;5049713;28;20093;-74
2024/01/09 01:22:24;;;;;;;7.82;4.82;;;;;;;;;;5048393;28;20107;-75
2024/01/09 01:24:50;;;;;;;6.28;4.20;;;;;;;;;;5049736;28;20017;-75
2024/01/09 01:27:16;;;;;;;8.55;4.72;;;;;;;;;;5049732;28;20017;-74
2024/01/09 01:29:43;;;;;;;6.72;4.72;;;;;;;;;;5049377;28;20021;-75
2024/01/09 01:32:10;;;;;;;7.25;4.75;;;;;;;;;;5049489;28;20075;-75
2024/01/09 01:34:36;;;;;;;8.00;4.57;;;;;;;;;;5049227;28;20469;-75
2024/01/09 01:37:02;;;;;;;6.18;4.25;;;;;;;;;;5048235;28;20288;-75
2024/01/09 01:39:28;;;;;;;7.45;4.60;;;;;;;;;;5047970;28;20036;-76
2024/01/09 01:41:54;;;;;;;7.18;5.05;;;;;;;;;;5047985;28;20518;-75
2024/01/09 01:44:22;;;;;;;9.57;5.10;;;;;;;;;;5047973;28;20063;-75
2024/01/09 01:46:48;;;;;;;7.43;4.60;;;;;;;;;;5048018;28;20053;-75
2024/01/09 01:49:16;;;;;;;9.15;4.88;;;;;;;;;;5047864;28;20854;-74
2024/01/09 01:51:43;;;;;;;6.32;4.40;;;;;;;;;;5049054;28;20047;-75
2024/01/09 01:54:09;;;;;;;10.13;4.60;;;;;;;;;;5047702;28;20017;-75
2024/01/09 01:56:35;;;;;;;7.13;4.55;;;;;;;;;;5049203;28;20021;-75
2024/01/09 01:59:02;;;;;;;9.88;5.05;;;;;;;;;;5048792;28;20088;-75
2024/01/09 02:01:29;;;;;;;6.80;4.63;;;;;;;;;;5047692;28;20017;-75
2024/01/09 02:03:56;;;;;;;6.50;4.57;;;;;;;;;;5048913;28;20104;-75
2024/01/09 02:06:22;;;;;;;7.18;4.78;;;;;;;;;;5049023;28;20108;-75
2024/01/09 02:08:49;;;;;;;7.10;4.68;;;;;;;;;;5047715;28;20032;-75
2024/01/09 02:11:15;;;;;;;8.38;4.57;;;;;;;;;;5047529;28;20032;-75
2024/01/09 02:13:41;;;;;;;8.80;4.90;;;;;;;;;;5049132;28;20527;-75
2024/01/09 02:16:07;;;;;;;8.48;4.82;;;;;;;;;;5047472;28;20539;-75
2024/01/09 02:18:33;;;;;;;6.63;4.53;;;;;;;;;;5048282;28;20100;-75
2024/01/09 02:20:59;;;;;;;6.95;4.88;;;;;;;;;;5047324;28;20464;-75
2024/01/09 02:23:25;;;;;;;7.18;4.22;;;;;;;;;;5047773;28;20111;-75
2024/01/09 02:25:52;;;;;;;7.28;4.47;;;;;;;;;;5047415;28;20103;-75
2024/01/09 02:28:26;;;;;;;8.32;4.95;;;;;;;;;;5048736;28;20101;-75
2024/01/09 02:30:53;;;;;;;6.20;4.65;;;;;;;;;;5048344;28;20031;-75
2024/01/09 02:33:20;;;;;;;8.40;4.95;;;;;;;;;;5048966;28;20071;-75
2024/01/09 02:35:46;;;;;;;8.60;4.82;;;;;;;;;;5048832;28;20444;-75
2024/01/09 02:38:12;;;;;;;6.93;4.53;;;;;;;;;;5048878;28;20083;-75
2024/01/09 02:40:39;;;;;;;8.10;4.80;;;;;;;;;;5047658;28;20126;-75
2024/01/09 02:43:05;;;;;;;7.18;4.60;;;;;;;;;;5047336;28;20104;-75
2024/01/09 02:45:31;;;;;;;9.07;5.15;;;;;;;;;;5048835;28;20033;-74
2024/01/09 02:47:57;;;;;;;8.77;5.55;;;;;;;;;;5047634;28;20013;-74
2024/01/09 02:50:23;;;;;;;8.95;5.10;;;;;;;;;;5048584;28;20021;-75
2024/01/09 02:52:49;;;;;;;8.90;5.05;;;;;;;;;;5047403;28;20028;-75
2024/01/09 02:55:16;;;;;;;7.97;5.38;;;;;;;;;;5047236;28;20028;-75
2024/01/09 02:57:42;;;;;;;7.25;4.88;;;;;;;;;;5048670;28;20488;-75
2024/01/09 03:00:08;;;;;;;8.02;5.03;;;;;;;;;;5047159;28;20124;-75
2024/01/09 03:02:35;;;;;;;7.38;4.90;;;;;;;;;;5047239;28;20021;-75
2024/01/09 03:05:01;;;;;;;8.00;4.80;;;;;;;;;;5048511;28;20005;-74
2024/01/09 03:07:27;;;;;;;9.10;4.82;;;;;;;;;;5048620;28;20021;-75
2024/01/09 03:09:53;;;;;;;6.82;4.85;;;;;;;;;;5048466;28;20079;-75
2024/01/09 03:12:19;;;;;;;6.75;4.70;;;;;;;;;;5047163;28;20074;-75
2024/01/09 03:14:45;;;;;;;7.68;4.68;;;;;;;;;;5048468;28;20021;-75
2024/01/09 03:17:11;;;;;;;7.03;4.57;;;;;;;;;;5047241;28;20099;-75
2024/01/09 03:19:38;;;;;;;8.82;4.68;;;;;;;;;;5047251;28;20013;-75
2024/01/09 03:22:04;;;;;;;8.48;4.70;;;;;;;;;;5046984;28;20018;-75
2024/01/09 03:24:30;;;;;;;8.05;5.00;;;;;;;;;;5048452;28;20013;-75
2024/01/09 03:26:56;;;;;;;8.45;4.57;;;;;;;;;;5047129;28;20393;-75
2024/01/09 03:29:22;;;;;;;6.50;4.60;;;;;;;;;;5046907;28;20048;-75
2024/01/09 03:31:48;;;;;;;7.75;4.55;;;;;;;;;;5052087;28;20100;-74
2024/01/09 03:34:14;;;;;;;7.75;4.80;;;;;;;;;;5050781;28;20465;-75
2024/01/09 03:36:40;;;;;;;10.27;4.10;;;;;;;;;;5050547;28;20036;-75
2024/01/09 03:39:08;;;;;;;8.52;5.18;;;;;;;;;;5050910;28;20029;-75
2024/01/09 03:41:34;;;;;;;9.45;4.80;;;;;;;;;;5050674;28;20565;-75
2024/01/09 03:44:00;;;;;;;8.52;4.80;;;;;;;;;;5050615;28;20013;-75
2024/01/09 03:46:26;;;;;;;8.60;4.63;;;;;;;;;;5050680;28;20024;-75
2024/01/09 03:48:52;;;;;;;10.02;5.10;;;;;;;;;;5050763;28;20082;-75
2024/01/09 03:51:18;;;;;;;7.45;4.60;;;;;;;;;;5051698;28;20021;-75
2024/01/09 03:53:44;;;;;;;8.40;4.82;;;;;;;;;;5050497;28;20032;-74
2024/01/09 03:56:11;;;;;;;8.07;4.57;;;;;;;;;;5050364;28;20123;-75
2024/01/09 03:58:37;;;;;;;7.70;4.60;;;;;;;;;;5050111;28;20029;-75
2024/01/09 04:01:03;;;;;;;7.25;4.65;;;;;;;;;;5050013;28;20147;-75
2024/01/09 04:03:29;;;;;;;7.40;3.92;;;;;;;;;;5050062;28;20023;-75
2024/01/09 04:05:55;;;;;;;7.47;4.63;;;;;;;;;;5050398;28;20013;-75
2024/01/09 04:08:21;;;;;;;8.57;5.10;;;;;;;;;;5051493;28;20059;-75
2024/01/09 04:10:47;;;;;;;8.32;4.43;;;;;;;;;;5049871;28;20114;-75
2024/01/09 04:13:13;;;;;;;7.95;4.78;;;;;;;;;;5051317;28;20021;-75
2024/01/09 04:15:40;;;;;;;7.53;3.90;;;;;;;;;;5050591;28;20036;-75
2024/01/09 04:18:06;;;;;;;8.93;4.65;;;;;;;;;;5051329;28;20052;-75
2024/01/09 04:20:32;;;;;;;5.18;4.25;;;;;;;;;;5049755;28;20481;-75
2024/01/09 04:22:58;;;;;;;7.70;4.20;;;;;;;;;;5049900;28;20020;-75
2024/01/09 04:25:24;;;;;;;9.27;4.35;;;;;;;;;;5051630;28;20017;-75
2024/01/09 04:27:50;;;;;;;9.55;4.88;;;;;;;;;;5049673;28;20025;-75
2024/01/09 04:30:16;;;;;;;7.22;4.30;;;;;;;;;;5050895;28;20028;-75
2024/01/09 04:32:42;;;;;;;6.40;4.75;;;;;;;;;;5050938;28;20021;-75
2024/01/09 04:35:08;;;;;;;7.47;4.60;;;;;;;;;;5050992;28;20033;-74
2024/01/09 04:37:34;;;;;;;5.75;4.10;;;;;;;;;;5049639;28;20036;-75
2024/01/09 04:40:00;;;;;;;7.43;4.15;;;;;;;;;;5049471;28;20009;-75
2024/01/09 04:42:26;;;;;;;7.28;4.10;;;;;;;;;;5048784;28;20021;-75
2024/01/09 04:44:52;;;;;;;7.38;4.38;;;;;;;;;;5051232;28;20021;-75
2024/01/09 04:47:18;;;;;;;7.65;4.80;;;;;;;;;;5049449;28;20021;-77
2024/01/09 04:49:44;;;;;;;5.72;3.83;;;;;;;;;;5050672;28;20068;-75
2024/01/09 04:52:10;;;;;;;9.25;4.22;;;;;;;;;;5049258;28;20024;-75
2024/01/09 04:54:36;;;;;;;5.88;4.15;;;;;;;;;;5049568;28;20500;-75
2024/01/09 04:57:02;;;;;;;8.10;4.25;;;;;;;;;;5049372;28;20477;-75
2024/01/09 04:59:28;;;;;;;6.28;3.65;;;;;;;;;;5049274;28;20017;-76
2024/01/09 05:01:54;;;;;;;7.40;4.35;;;;;;;;;;5049176;28;20021;-75
2024/01/09 05:04:20;;;;;;;7.38;4.20;;;;;;;;;;5050635;28;20468;-76
2024/01/09 05:06:47;;;;;;;5.95;4.30;;;;;;;;;;5049061;28;20520;-78
2024/01/09 05:09:13;;;;;;;6.72;4.25;;;;;;;;;;5050447;28;20020;-75
2024/01/09 05:11:39;;;;;;;7.93;4.40;;;;;;;;;;5050422;28;20572;-75
2024/01/09 05:14:05;;;;;;;7.68;4.28;;;;;;;;;;5049082;28;20024;-75
2024/01/09 05:16:31;;;;;;;6.13;3.72;;;;;;;;;;5049036;28;20024;-75
2024/01/09 05:18:57;;;;;;;6.25;3.70;;;;;;;;;;5050156;28;20079;-76
2024/01/09 05:21:23;;;;;;;6.78;4.10;;;;;;;;;;5048759;28;20120;-75
2024/01/09 05:23:49;;;;;;;7.13;4.00;;;;;;;;;;5048559;28;20111;-76
2024/01/09 05:26:15;;;;;;;6.57;4.15;;;;;;;;;;5050307;28;20088;-76
2024/01/09 05:28:41;;;;;;;6.88;4.10;;;;;;;;;;5048613;28;20036;-75
2024/01/09 05:31:07;;;;;;;6.95;3.67;;;;;;;;;;5048890;28;20112;-75
2024/01/09 05:33:33;;;;;;;7.53;4.28;;;;;;;;;;5047476;28;20158;-76
2024/01/09 05:35:59;;;;;;;8.02;4.53;;;;;;;;;;5054152;28;20041;-75
2024/01/09 05:38:25;;;;;;;6.47;4.68;;;;;;;;;;5049323;28;20080;-75
2024/01/09 05:40:52;;;;;;;6.57;4.72;;;;;;;;;;5049612;28;20464;-75
2024/01/09 05:43:18;;;;;;;6.40;4.15;;;;;;;;;;5045533;28;20381;-75
2024/01/09 05:45:44;;;;;;;7.65;5.30;;;;;;;;;;5048132;28;20469;-75
2024/01/09 05:48:10;;;;;;;6.10;4.47;;;;;;;;;;5049514;28;20021;-75
2024/01/09 05:50:36;;;;;;;6.82;4.20;;;;;;;;;;5049699;28;20079;-76
2024/01/09 05:53:02;;;;;;;8.68;5.45;;;;;;;;;;5047379;28;20489;-75
2024/01/09 05:55:28;;;;;;;7.45;5.15;;;;;;;;;;5044728;28;20029;-75
2024/01/09 05:57:54;;;;;;;6.93;4.78;;;;;;;;;;5036775;28;20033;-75
2024/01/09 06:00:20;;;;;;;6.28;5.00;;;;;;;;;;5048506;28;20492;-79
2024/01/09 06:02:46;;;;;;;7.50;5.53;;;;;;;;;;5047962;28;20070;-75
2024/01/09 06:05:12;;;;;;;7.05;4.53;;;;;;;;;;5049277;28;20021;-75
2024/01/09 06:07:38;;;;;;;7.32;4.05;;;;;;;;;;5047195;28;20072;-75
2024/01/09 06:10:04;;;;;;;6.18;4.15;;;;;;;;;;5047595;28;20416;-75
2024/01/09 06:12:30;;;;;;;8.35;5.00;;;;;;;;;;5047381;28;20021;-75
2024/01/09 06:14:57;;;;;;;7.22;4.80;;;;;;;;;;5047223;28;20047;-75
2024/01/09 06:17:23;;;;;;;7.97;5.20;;;;;;;;;;5048554;28;20025;-75
2024/01/09 06:19:49;;;;;;;9.65;5.10;;;;;;;;;;5047509;28;20024;-75
2024/01/09 06:22:16;;;;;;;6.65;4.65;;;;;;;;;;5047286;28;20030;-75
2024/01/09 06:24:42;;;;;;;10.77;6.20;;;;;;;;;;5048425;28;20028;-75
2024/01/09 06:27:08;;;;;;;11.85;7.10;;;;;;;;;;5047131;28;20025;-75
2024/01/09 06:29:34;;;;;;;10.98;6.63;;;;;;;;;;5047400;28;20116;-75
2024/01/09 06:32:00;;;;;;;8.63;5.25;;;;;;;;;;5047282;28;20021;-75
2024/01/09 06:34:26;;;;;;;6.82;4.80;;;;;;;;;;5048351;28;20032;-75
2024/01/09 06:36:52;;;;;;;6.82;5.15;;;;;;;;;;5046858;28;20094;-75
2024/01/09 06:39:18;;;;;;;7.97;4.60;;;;;;;;;;5046939;28;20029;-75
2024/01/09 06:41:44;;;;;;;9.30;5.07;;;;;;;;;;5047168;28;20489;-75
2024/01/09 06:44:11;;;;;;;8.32;5.35;;;;;;;;;;5048535;28;20466;-75
2024/01/09 06:46:37;;;;;;;7.50;5.05;;;;;;;;;;5048321;28;20619;-76
2024/01/09 06:49:03;;;;;;;8.13;5.15;;;;;;;;;;5048343;28;20044;-75
2024/01/09 06:51:30;;;;;;;7.45;5.03;;;;;;;;;;5048048;28;20408;-75
2024/01/09 06:53:56;;;;;;;6.82;4.63;;;;;;;;;;5048202;28;20021;-75
2024/01/09 06:56:22;;;;;;;7.05;4.82;;;;;;;;;;5048422;28;20017;-75
2024/01/09 06:58:48;;;;;;;7.57;4.90;;;;;;;;;;5048049;28;20035;-75
2024/01/09 07:01:14;;;;;;;7.50;4.90;;;;;;;;;;5046726;28;20500;-74
2024/01/09 07:03:40;;;;;;;22.52;9.63;;;;;;;;;;5047744;28;20017;-77
2024/01/09 07:06:06;;;;;;;11.73;6.45;;;;;;;;;;5049834;28;20048;-75
2024/01/09 07:08:32;;;;;;;9.90;6.13;;;;;;;;;;5050902;28;20051;-75
2024/01/09 07:10:58;;;;;;;8.40;5.45;;;;;;;;;;5050665;28;20443;-75
2024/01/09 07:13:24;;;;;;;7.75;5.32;;;;;;;;;;5050618;28;20550;-76
2024/01/09 07:15:50;;;;;;;7.25;5.25;;;;;;;;;;5051131;28;20232;-75
2024/01/09 07:18:16;;;;;;;7.18;4.82;;;;;;;;;;5050972;28;20132;-75
2024/01/09 07:20:43;;;;;;;8.50;5.22;;;;;;;;;;5051810;28;20021;-75
2024/01/09 07:23:09;;;;;;;10.10;5.10;;;;;;;;;;5050544;28;20637;-75
2024/01/09 07:25:35;;;;;;;13.88;7.55;;;;;;;;;;5052096;28;20047;-75
2024/01/09 07:28:02;;;;;;;14.88;7.95;;;;;;;;;;5041551;28;20473;-74
2024/01/09 07:30:28;;;;;;;31.50;12.38;;;;;;;;;;5049821;28;20040;-75
2024/01/09 07:32:54;;;;;;;18.08;8.98;;;;;;;;;;5050997;28;20051;-74
2024/01/09 07:35:20;;;;;;;20.83;9.18;;;;;;;;;;5049655;28;20068;-75
2024/01/09 07:37:46;;;;;;;16.48;8.32;;;;;;;;;;5046935;28;20017;-75
2024/01/09 07:40:12;;;;;;;19.80;8.90;;;;;;;;;;5049716;28;20329;-74
2024/01/09 07:42:38;;;;;;;15.38;7.15;;;;;;;;;;5048556;28;20480;-75
2024/01/09 07:45:04;;;;;;;14.13;7.40;;;;;;;;;;5049806;28;20473;-75
2024/01/09 07:47:31;;;;;;;8.98;5.80;;;;;;;;;;5051099;28;20013;-74
2024/01/09 07:49:57;;;;;;;8.25;5.43;;;;;;;;;;5050979;28;20017;-74
2024/01/09 07:52:23;;;;;;;7.13;4.68;;;;;;;;;;5049480;28;20169;-75
2024/01/09 07:54:49;;;;;;;6.50;4.82;;;;;;;;;;5051203;28;20029;-74
2024/01/09 07:57:15;;;;;;;5.95;3.75;;;;;;;;;;5049402;28;20108;-75
2024/01/09 07:59:42;;;;;;;8.52;4.78;;;;;;;;;;5049526;28;20473;-75
2024/01/09 08:02:08;;;;;;;7.00;4.90;;;;;;;;;;5049470;28;20013;-75
2024/01/09 08:04:34;;;;;;;5.47;3.50;;;;;;;;;;5050512;28;20013;-75
2024/01/09 08:07:00;;;;;;;8.63;4.80;;;;;;;;;;5049317;28;20092;-75
2024/01/09 08:09:26;;;;;;;8.25;5.22;;;;;;;;;;5047649;28;20112;-75
2024/01/09 08:11:52;;;;;;;22.70;10.27;;;;;;;;;;5050540;28;20020;-75
2024/01/09 08:14:18;;;;;;;9.93;6.35;;;;;;;;;;5046598;28;20017;-75
2024/01/09 08:16:44;;;;;;;13.60;7.97;;;;;;;;;;5046187;28;20025;-75
2024/01/09 08:19:11;;;;;;;10.13;6.40;;;;;;;;;;5049186;28;20005;-75
2024/01/09 08:21:37;;;;;;;8.90;5.32;;;;;;;;;;5048716;28;20017;-74
2024/01/09 08:24:03;;;;;;;9.43;6.18;;;;;;;;;;5049859;28;20021;-75
2024/01/09 08:26:30;;;;;;;8.02;5.03;;;;;;;;;;5050662;28;20024;-75
2024/01/09 08:28:56;;;;;;;6.45;4.45;;;;;;;;;;5049579;28;20086;-75
2024/01/09 08:31:22;;;;;;;7.72;4.68;;;;;;;;;;5050644;28;20025;-75
2024/01/09 08:33:48;;;;;;;6.30;4.30;;;;;;;;;;5050341;28;20031;-75
2024/01/09 08:36:15;;;;;;;6.88;4.70;;;;;;;;;;5048683;28;20045;-75
2024/01/09 08:38:41;;;;;;;6.30;4.32;;;;;;;;;;5049925;28;20107;-75
2024/01/09 08:41:08;;;;;;;6.10;4.45;;;;;;;;;;5048673;28;20155;-74
2024/01/09 08:43:34;;;;;;;7.60;4.20;;;;;;;;;;5048667;28;20013;-75
2024/01/09 08:46:00;;;;;;;6.90;4.53;;;;;;;;;;5042496;28;20020;-75
2024/01/09 08:48:27;;;;;;;6.25;4.40;;;;;;;;;;5039776;28;20021;-75
2024/01/09 08:50:53;;;;;;;7.32;4.97;;;;;;;;;;5049730;28;20025;-75
2024/01/09 08:53:20;;;;;;;5.63;4.53;;;;;;;;;;5047333;28;20032;-74
2024/01/09 08:55:46;;;;;;;8.07;4.50;;;;;;;;;;5047927;28;20457;-75
2024/01/09 08:58:12;;;;;;;6.80;4.32;;;;;;;;;;5047625;28;20079;-75
2024/01/09 09:00:38;;;;;;;6.45;4.65;;;;;;;;;;5048771;28;20017;-74
2024/01/09 09:03:04;;;;;;;6.22;4.50;;;;;;;;;;5048147;28;20524;-75
2024/01/09 09:05:30;;;;;;;6.28;4.22;;;;;;;;;;5049561;28;20020;-74
2024/01/09 09:07:57;;;;;;;7.85;5.25;;;;;;;;;;5049551;28;20059;-74
2024/01/09 09:10:23;;;;;;;8.13;5.70;;;;;;;;;;5049499;28;20091;-75
2024/01/09 09:12:49;;;;;;;6.97;5.07;;;;;;;;;;5049211;28;20028;-74
2024/01/09 09:15:15;;;;;;;7.05;4.38;;;;;;;;;;5047979;28;20028;-75
2024/01/09 09:17:41;;;;;;;5.65;3.90;;;;;;;;;;5048166;28;20033;-75
2024/01/09 09:20:07;;;;;;;6.93;4.75;;;;;;;;;;5047891;28;20465;-75
2024/01/09 09:22:33;;;;;;;6.18;3.97;;;;;;;;;;5047728;28;20025;-75
2024/01/09 09:24:59;;;;;;;6.78;4.60;;;;;;;;;;5047927;28;20055;-74
2024/01/09 09:27:26;;;;;;;7.82;4.53;;;;;;;;;;5049060;28;20441;-75
2024/01/09 09:29:53;;;;;;;6.13;3.88;;;;;;;;;;5049032;28;20395;-75
2024/01/09 09:32:19;;;;;;;6.30;4.05;;;;;;;;;;5047610;28;20373;-75
2024/01/09 09:34:45;;;;;;;6.82;4.20;;;;;;;;;;5047332;28;20450;-74
2024/01/09 09:37:12;;;;;;;6.45;4.13;;;;;;;;;;5047478;28;20538;-75
2024/01/09 09:39:38;;;;;;;6.25;4.07;;;;;;;;;;5047694;28;20009;-75
2024/01/09 09:42:04;;;;;;;5.28;4.10;;;;;;;;;;5048666;28;20021;-74
2024/01/09 09:44:32;;;;;;;6.30;4.30;;;;;;;;;;5048707;28;20430;-75
2024/01/09 09:46:58;;;;;;;6.50;4.40;;;;;;;;;;5047597;28;20430;-74
2024/01/09 09:49:24;;;;;;;5.28;3.92;;;;;;;;;;5042168;28;20288;-75
2024/01/09 09:51:51;;;;;;;6.28;4.30;;;;;;;;;;5037206;28;20035;-75
2024/01/09 09:54:17;;;;;;;5.72;4.22;;;;;;;;;;5047736;28;20021;-74
2024/01/09 09:56:44;;;;;;;5.57;4.22;;;;;;;;;;5047715;28;20333;-75
2024/01/09 09:59:11;;;;;;;6.15;4.53;;;;;;;;;;5046603;28;20024;-75
2024/01/09 10:01:38;;;;;;;5.90;4.30;;;;;;;;;;5046038;28;20024;-75
2024/01/09 10:04:13;;;;;;;5.30;3.92;;;;;;;;;;5046565;28;20021;-75
2024/01/09 10:06:42;;;;;;;5.50;3.95;;;;;;;;;;5044459;28;20017;-75
2024/01/09 10:09:10;;;;;;;5.75;3.65;;;;;;;;;;5047774;28;20058;-75
2024/01/09 10:11:36;;;;;;;6.05;4.20;;;;;;;;;;5047296;28;20013;-75
2024/01/09 10:14:02;;;;;;;4.88;3.35;;;;;;;;;;5046654;28;20417;-75
2024/01/09 10:16:28;;;;;;;6.82;4.10;;;;;;;;;;5046557;28;20017;-75
2024/01/09 10:18:57;;;;;;;8.15;4.35;;;;;;;;;;5046328;28;20031;-75
2024/01/09 10:21:23;;;;;;;5.57;3.78;;;;;;;;;;5046708;28;20355;-75
2024/01/09 10:23:49;;;;;;;6.47;3.55;;;;;;;;;;5047562;28;20112;-75
2024/01/09 10:26:15;;;;;;;5.30;3.75;;;;;;;;;;5047185;28;20021;-75
2024/01/09 10:28:41;;;;;;;5.40;4.00;;;;;;;;;;5046767;28;20150;-74
2024/01/09 10:31:08;;;;;;;4.82;3.55;;;;;;;;;;5046107;28;20025;-74
2024/01/09 10:33:34;;;;;;;5.57;3.95;;;;;;;;;;5047810;28;20021;-74
2024/01/09 10:36:00;;;;;;;6.45;3.92;;;;;;;;;;5046570;28;20067;-74
2024/01/09 10:38:26;;;;;;;10.27;6.18;;;;;;;;;;5046618;28;20033;-74
2024/01/09 10:40:56;;;;;;;7.75;5.18;;;;;;;;;;5046520;28;20540;-74
2024/01/09 10:43:25;;;;;;;7.93;5.63;;;;;;;;;;5046920;28;20554;-74
2024/01/09 10:45:52;;;;;;;6.65;4.78;;;;;;;;;;5047805;28;20118;-75
2024/01/09 10:48:21;;;;;;;6.70;4.75;;;;;;;;;;5047542;28;20316;-74
2024/01/09 10:50:49;;;;;;;9.02;5.47;;;;;;;;;;5046411;28;20531;-75
2024/01/09 10:53:15;;;;;;;6.78;4.55;;;;;;;;;;5046638;28;20032;-75
2024/01/09 10:55:41;;;;;;;6.93;4.40;;;;;;;;;;5044180;28;20020;-75
2024/01/09 10:58:08;;;;;;;5.20;3.97;;;;;;;;;;5047660;28;20025;-75
2024/01/09 11:00:35;;;;;;;4.78;3.47;;;;;;;;;;5046398;28;20013;-75
2024/01/09 11:03:01;;;;;;;4.63;3.65;;;;;;;;;;5045046;28;20017;-75
2024/01/09 11:05:27;;;;;;;5.05;3.58;;;;;;;;;;5046369;28;20032;-75
2024/01/09 11:07:55;;;;;;;5.45;3.65;;;;;;;;;;5046345;28;20423;-75
2024/01/09 11:10:22;;;;;;;5.28;3.50;;;;;;;;;;5045105;28;20080;-75
2024/01/09 11:12:50;;;;;;;6.65;4.10;;;;;;;;;;5047682;28;20485;-75
2024/01/09 11:15:23;;;;;;;5.32;3.67;;;;;;;;;;5046376;28;20078;-75
2024/01/09 11:17:52;;;;;;;4.80;3.50;;;;;;;;;;5047779;28;20033;-75
2024/01/09 11:20:19;;;;;;;5.38;3.63;;;;;;;;;;5044469;28;20462;-75
2024/01/09 11:22:45;;;;;;;5.78;3.60;;;;;;;;;;5040653;28;20109;-75
2024/01/09 11:25:16;;;;;;;6.88;3.72;;;;;;;;;;5047725;28;20092;-75
2024/01/09 11:27:43;;;;;;;5.10;3.70;;;;;;;;;;5046721;28;20473;-77
2024/01/09 11:30:16;;;;;;;3.70;2.67;;;;;;;;;;5048230;28;20017;-75
2024/01/09 11:32:42;;;;;;;4.53;3.05;;;;;;;;;;5044435;28;20071;-75
2024/01/09 11:35:13;;;;;;;5.93;3.58;;;;;;;;;;5047497;28;20441;-74
2024/01/09 11:37:40;;;;;;;3.78;3.10;;;;;;;;;;5046555;28;20291;-75
2024/01/09 11:40:08;;;;;;;6.20;3.20;;;;;;;;;;5047865;28;20063;-75
2024/01/09 11:42:36;;;;;;;5.07;3.53;;;;;;;;;;5046378;28;20036;-74
2024/01/09 11:45:03;;;;;;;6.43;3.30;;;;;;;;;;5047841;28;20021;-75
2024/01/09 11:47:30;;;;;;;4.72;2.92;;;;;;;;;;5046657;28;20079;-74
2024/01/09 11:49:58;;;;;;;3.20;2.78;;;;;;;;;;5046268;28;20098;-74
2024/01/09 11:52:25;;;;;;;4.72;3.17;;;;;;;;;;5049298;28;20027;-75
2024/01/09 11:54:51;;;;;;;4.05;3.03;;;;;;;;;;5051404;28;20416;-75
2024/01/09 11:57:19;;;;;;;3.83;2.65;;;;;;;;;;5050030;28;20145;-75
2024/01/09 11:59:45;;;;;;;4.55;2.88;;;;;;;;;;5049855;28;20017;-75
2024/01/09 12:02:11;;;;;;;3.25;2.40;;;;;;;;;;5050082;28;20023;-74
2024/01/09 12:04:37;;;;;;;3.95;2.38;;;;;;;;;;5051450;28;20324;-75
2024/01/09 12:07:03;;;;;;;3.58;2.80;;;;;;;;;;5051158;28;20071;-74
2024/01/09 12:09:30;;;;;;;5.07;2.83;;;;;;;;;;5050990;28;20381;-74
2024/01/09 12:11:56;;;;;;;4.15;2.60;;;;;;;;;;5049936;28;20488;-75
2024/01/09 12:14:22;;;;;;;3.75;2.67;;;;;;;;;;5051060;28;20017;-75
2024/01/09 12:16:50;;;;;;;3.28;2.65;;;;;;;;;;5049807;28;20548;-75
2024/01/09 12:19:17;;;;;;;2.83;2.25;;;;;;;;;;5049564;28;20037;-75
2024/01/09 12:21:43;;;;;;;4.22;2.55;;;;;;;;;;5048150;28;20009;-75
2024/01/09 12:24:09;;;;;;;4.75;2.42;;;;;;;;;;5046422;28;20017;-75
2024/01/09 12:26:36;;;;;;;3.60;2.60;;;;;;;;;;5049326;28;20112;-74
2024/01/09 12:29:03;;;;;;;3.80;2.63;;;;;;;;;;5049327;28;20029;-75
2024/01/09 12:31:30;;;;;;;3.58;2.85;;;;;;;;;;5050946;28;20070;-77
2024/01/09 12:33:56;;;;;;;3.83;2.78;;;;;;;;;;5050063;28;20029;-76
2024/01/09 12:36:25;;;;;;;4.68;3.33;;;;;;;;;;5050095;28;20033;-75
2024/01/09 12:38:52;;;;;;;8.10;4.75;;;;;;;;;;5048864;28;20036;-77
2024/01/09 12:41:21;;;;;;;8.93;5.43;;;;;;;;;;5049398;28;20021;-78
2024/01/09 12:43:47;;;;;;;28.30;10.77;;;;;;;;;;5048314;28;20477;-76
2024/01/09 12:46:13;;;;;;;21.25;9.57;;;;;;;;;;5050111;28;20017;-76
2024/01/09 12:48:43;;;;;;;5.97;3.78;;;;;;;;;;5050478;28;20016;-76
2024/01/09 12:51:09;;;;;;;31.05;12.35;;;;;;;;;;5049381;28;20017;-76
2024/01/09 12:53:36;;;;;;;8.27;4.47;;;;;;;;;;5049441;28;20542;-76
2024/01/09 12:56:09;;;;;;;11.30;5.97;;;;;;;;;;5050501;28;20021;-76
2024/01/09 12:58:41;;;;;;;8.13;4.93;;;;;;;;;;5047787;28;20032;-77
2024/01/09 13:01:07;;;;;;;9.43;4.82;;;;;;;;;;5049908;28;20226;-76
2024/01/09 13:03:33;;;;;;;4.18;3.40;;;;;;;;;;5050845;28;20048;-76
2024/01/09 13:06:04;;;;;;;8.50;5.57;;;;;;;;;;5048921;28;20016;-76
2024/01/09 13:08:31;;;;;;;5.13;3.67;;;;;;;;;;5048648;28;20020;-76
2024/01/09 13:10:57;;;;;;;7.93;4.70;;;;;;;;;;5048680;28;20024;-76
2024/01/09 13:13:24;;;;;;;4.95;3.75;;;;;;;;;;5050281;28;20563;-76
2024/01/09 13:15:50;;;;;;;11.43;5.97;;;;;;;;;;5049234;28;20047;-76
2024/01/09 13:18:17;;;;;;;7.45;4.97;;;;;;;;;;5046609;28;20036;-76
2024/01/09 13:20:43;;;;;;;4.60;3.65;;;;;;;;;;5041680;28;20021;-76
2024/01/09 13:23:09;;;;;;;4.53;3.05;;;;;;;;;;5029354;28;20043;-76
2024/01/09 13:25:35;;;;;;;7.47;4.22;;;;;;;;;;5046561;28;20013;-76
2024/01/09 13:28:01;;;;;;;5.63;3.55;;;;;;;;;;5048300;28;20020;-76
2024/01/09 13:30:27;;;;;;;8.73;5.15;;;;;;;;;;5047786;28;20047;-76
2024/01/09 13:32:53;;;;;;;6.13;3.90;;;;;;;;;;5048542;28;20118;-76
2024/01/09 13:35:19;;;;;;;7.07;4.97;;;;;;;;;;5047060;28;20477;-76
2024/01/09 13:37:45;;;;;;;5.70;4.40;;;;;;;;;;5047994;28;20078;-76
2024/01/09 13:40:12;;;;;;;5.07;3.65;;;;;;;;;;5048406;28;20040;-76
2024/01/09 13:42:38;;;;;;;5.05;3.67;;;;;;;;;;5047990;28;20066;-76
2024/01/09 13:45:04;;;;;;;5.50;3.58;;;;;;;;;;5047921;28;20044;-76
2024/01/09 13:47:30;;;;;;;4.90;3.15;;;;;;;;;;5048295;28;20017;-76
2024/01/09 13:49:56;;;;;;;4.97;3.42;;;;;;;;;;5048892;28;20017;-76
2024/01/09 13:52:22;;;;;;;6.47;3.75;;;;;;;;;;5047952;28;20032;-76
2024/01/09 13:54:48;;;;;;;4.47;2.95;;;;;;;;;;5047859;28;20412;-76
2024/01/09 13:57:14;;;;;;;4.18;3.22;;;;;;;;;;5047318;28;20028;-76
2024/01/09 13:59:43;;;;;;;4.95;3.75;;;;;;;;;;5047448;28;20028;-76
2024/01/09 14:02:09;;;;;;;5.55;3.42;;;;;;;;;;5048918;28;20016;-76
2024/01/09 14:04:35;;;;;;;3.78;3.05;;;;;;;;;;5047417;28;20017;-76
2024/01/09 14:07:01;;;;;;;4.03;3.25;;;;;;;;;;5048604;28;20024;-76
2024/01/09 14:09:27;;;;;;;4.95;3.72;;;;;;;;;;5047365;28;20036;-76
2024/01/09 14:11:53;;;;;;;4.13;3.47;;;;;;;;;;5048580;28;20013;-76
2024/01/09 14:14:22;;;;;;;4.80;3.58;;;;;;;;;;5048048;28;20389;-76
2024/01/09 14:16:48;;;;;;;4.60;3.10;;;;;;;;;;5046952;28;20025;-76
2024/01/09 14:19:16;;;;;;;5.35;3.03;;;;;;;;;;5047018;28;20107;-76
2024/01/09 14:21:45;;;;;;;4.68;3.25;;;;;;;;;;5047061;28;20529;-76
2024/01/09 14:24:11;;;;;;;3.95;2.83;;;;;;;;;;5048305;28;20481;-76
2024/01/09 14:26:37;;;;;;;4.18;3.22;;;;;;;;;;5046694;28;20516;-76
2024/01/09 14:29:03;;;;;;;4.40;3.17;;;;;;;;;;5046836;28;20052;-76
2024/01/09 14:31:29;;;;;;;5.28;3.20;;;;;;;;;;5046782;28;20385;-76
2024/01/09 14:33:56;;;;;;;4.75;2.92;;;;;;;;;;5037523;28;20078;-76
2024/01/09 14:36:22;;;;;;;4.07;3.22;;;;;;;;;;5044559;28;20040;-77